Boryspil, Ukraine
Current Conditions -  °F | °C
As of 7:30 PM on Friday 24 Oct 2014 (Local Time) from UKBB Reporting Station
Clear Clear  
Wind Chill: 15°   Ceiling: Unl
Heat Index: 25°   Visibility: 6mi
Dew Point: 14°   Wind: 9mph
Humidity: 64%   Direction: 40°NE
Pressure: 30.5"   Gusts: NA
Location:  50.35°N, 30.95°E
Report Text: UKBB 241630Z 04004MPS CAVOK M04/M10 Q1033 88CLRD95 NOSIG
Loading
Personal Weather Stations






























Interactive Weather Map
Tropical Storm Tracking
New forecast layout! Learn more

10-Day Weather Forecast

Advertisements
Track Severe Weather on mobile